Terminal Aerodrome Forecast
Issued by NWS

Home | Current Version | Previous Version | Text Only | Print | Product List | Glossary On
Versions: 1 2 3 4 5 6 7 8 9 10 11 12 13
000
FTUS45 KRIW 091100
TAFCPR
TAF
KCPR 091128Z 0912/1012 VRB06KT P6SM FEW120 SCT200
     FM092300 08011KT P6SM SCT110
     FM100400 VRB10G20KT P6SM VCTS SCT090CB BKN200
     FM100700 24008KT P6SM SCT120 BKN200=

USA.gov is the U.S. government's official web portal to all federal, state and local government web resources and services.